sensor_id;sensor_type;location;lat;lon;timestamp;P1;durP1;ratioP1;P2;durP2;ratioP2
62419;SDS011;48460;51.616;5.426;2023-03-01T00:01:35;12.82;;;7.30;;
62419;SDS011;48460;51.616;5.426;2023-03-01T00:04:03;14.23;;;7.10;;
62419;SDS011;48460;51.616;5.426;2023-03-01T00:06:31;15.50;;;7.65;;
62419;SDS011;48460;51.616;5.426;2023-03-01T00:08:57;13.80;;;7.38;;
62419;SDS011;48460;51.616;5.426;2023-03-01T00:11:27;11.65;;;7.10;;
62419;SDS011;48460;51.616;5.426;2023-03-01T00:13:56;15.43;;;7.13;;
62419;SDS011;48460;51.616;5.426;2023-03-01T00:16:25;9.82;;;6.22;;
62419;SDS011;48460;51.616;5.426;2023-03-01T00:18:55;12.73;;;7.10;;
62419;SDS011;48460;51.616;5.426;2023-03-01T00:21:23;14.32;;;7.32;;
62419;SDS011;48460;51.616;5.426;2023-03-01T00:23:49;11.75;;;6.70;;
62419;SDS011;48460;51.616;5.426;2023-03-01T00:26:16;11.70;;;6.00;;
62419;SDS011;48460;51.616;5.426;2023-03-01T00:28:43;12.35;;;7.03;;
62419;SDS011;48460;51.616;5.426;2023-03-01T00:31:22;11.00;;;6.30;;
62419;SDS011;48460;51.616;5.426;2023-03-01T00:33:57;15.95;;;7.10;;
62419;SDS011;48460;51.616;5.426;2023-03-01T00:36:36;11.40;;;6.80;;
62419;SDS011;48460;51.616;5.426;2023-03-01T00:39:04;12.85;;;6.65;;
62419;SDS011;48460;51.616;5.426;2023-03-01T00:41:32;10.70;;;6.50;;
62419;SDS011;48460;51.616;5.426;2023-03-01T00:44:00;11.55;;;6.47;;
62419;SDS011;48460;51.616;5.426;2023-03-01T00:46:27;13.10;;;6.75;;
62419;SDS011;48460;51.616;5.426;2023-03-01T00:48:54;11.63;;;6.65;;
62419;SDS011;48460;51.616;5.426;2023-03-01T00:51:22;13.65;;;6.68;;
62419;SDS011;48460;51.616;5.426;2023-03-01T00:54:08;10.30;;;6.32;;
62419;SDS011;48460;51.616;5.426;2023-03-01T00:56:34;12.02;;;6.47;;
62419;SDS011;48460;51.616;5.426;2023-03-01T00:59:02;12.02;;;6.45;;
62419;SDS011;48460;51.616;5.426;2023-03-01T01:01:29;10.52;;;6.22;;
62419;SDS011;48460;51.616;5.426;2023-03-01T01:03:59;13.02;;;6.90;;
62419;SDS011;48460;51.616;5.426;2023-03-01T01:06:35;11.07;;;6.43;;
62419;SDS011;48460;51.616;5.426;2023-03-01T01:09:03;11.88;;;6.40;;
62419;SDS011;48460;51.616;5.426;2023-03-01T01:11:33;10.07;;;6.03;;
62419;SDS011;48460;51.616;5.426;2023-03-01T01:14:01;10.55;;;5.95;;
62419;SDS011;48460;51.616;5.426;2023-03-01T01:16:30;10.55;;;5.78;;
62419;SDS011;48460;51.616;5.426;2023-03-01T01:18:56;10.93;;;6.45;;
62419;SDS011;48460;51.616;5.426;2023-03-01T01:21:22;12.68;;;6.07;;
62419;SDS011;48460;51.616;5.426;2023-03-01T01:23:49;9.10;;;5.80;;
62419;SDS011;48460;51.616;5.426;2023-03-01T01:26:17;13.48;;;6.20;;
62419;SDS011;48460;51.616;5.426;2023-03-01T01:28:45;10.90;;;6.32;;
62419;SDS011;48460;51.616;5.426;2023-03-01T01:31:12;9.82;;;6.20;;
62419;SDS011;48460;51.616;5.426;2023-03-01T01:33:40;11.23;;;5.85;;
62419;SDS011;48460;51.616;5.426;2023-03-01T01:36:06;11.48;;;6.47;;
62419;SDS011;48460;51.616;5.426;2023-03-01T01:38:35;13.93;;;6.32;;
62419;SDS011;48460;51.616;5.426;2023-03-01T01:41:05;9.77;;;5.80;;
62419;SDS011;48460;51.616;5.426;2023-03-01T01:43:42;11.65;;;6.53;;
62419;SDS011;48460;51.616;5.426;2023-03-01T01:48:45;11.10;;;6.47;;
62419;SDS011;48460;51.616;5.426;2023-03-01T01:51:18;11.90;;;6.47;;
62419;SDS011;48460;51.616;5.426;2023-03-01T01:53:49;12.65;;;7.15;;
62419;SDS011;48460;51.616;5.426;2023-03-01T01:56:20;11.95;;;6.32;;
62419;SDS011;48460;51.616;5.426;2023-03-01T01:58:49;9.45;;;6.10;;
62419;SDS011;48460;51.616;5.426;2023-03-01T02:01:20;10.85;;;6.10;;
62419;SDS011;48460;51.616;5.426;2023-03-01T02:03:46;9.88;;;5.82;;
62419;SDS011;48460;51.616;5.426;2023-03-01T02:06:15;8.00;;;5.40;;
62419;SDS011;48460;51.616;5.426;2023-03-01T02:08:50;9.00;;;5.72;;
62419;SDS011;48460;51.616;5.426;2023-03-01T02:11:19;9.25;;;5.95;;
62419;SDS011;48460;51.616;5.426;2023-03-01T02:13:50;10.55;;;6.05;;
62419;SDS011;48460;51.616;5.426;2023-03-01T02:16:17;9.45;;;6.00;;
62419;SDS011;48460;51.616;5.426;2023-03-01T02:18:45;12.77;;;5.75;;
62419;SDS011;48460;51.616;5.426;2023-03-01T02:23:58;9.32;;;5.80;;
62419;SDS011;48460;51.616;5.426;2023-03-01T02:26:33;11.02;;;6.03;;
62419;SDS011;48460;51.616;5.426;2023-03-01T02:29:22;10.27;;;5.43;;
62419;SDS011;48460;51.616;5.426;2023-03-01T02:31:49;9.70;;;5.53;;
62419;SDS011;48460;51.616;5.426;2023-03-01T02:34:20;9.13;;;5.65;;
62419;SDS011;48460;51.616;5.426;2023-03-01T02:39:19;9.20;;;5.68;;
62419;SDS011;48460;51.616;5.426;2023-03-01T02:41:53;10.67;;;6.27;;
62419;SDS011;48460;51.616;5.426;2023-03-01T02:44:21;8.00;;;4.85;;
62419;SDS011;48460;51.616;5.426;2023-03-01T02:46:49;9.43;;;5.30;;
62419;SDS011;48460;51.616;5.426;2023-03-01T02:49:27;10.15;;;5.60;;
62419;SDS011;48460;51.616;5.426;2023-03-01T02:54:51;9.02;;;5.22;;
62419;SDS011;48460;51.616;5.426;2023-03-01T02:57:23;9.65;;;5.43;;
62419;SDS011;48460;51.616;5.426;2023-03-01T02:59:54;9.88;;;5.40;;
62419;SDS011;48460;51.616;5.426;2023-03-01T03:02:26;10.32;;;5.57;;
62419;SDS011;48460;51.616;5.426;2023-03-01T03:05:10;10.93;;;5.43;;
62419;SDS011;48460;51.616;5.426;2023-03-01T03:07:39;12.02;;;5.70;;
62419;SDS011;48460;51.616;5.426;2023-03-01T03:10:09;10.80;;;5.45;;
62419;SDS011;48460;51.616;5.426;2023-03-01T03:12:38;9.93;;;5.60;;
62419;SDS011;48460;51.616;5.426;2023-03-01T03:15:04;10.48;;;5.55;;
62419;SDS011;48460;51.616;5.426;2023-03-01T03:17:37;12.15;;;5.75;;
62419;SDS011;48460;51.616;5.426;2023-03-01T03:20:10;10.65;;;5.63;;
62419;SDS011;48460;51.616;5.426;2023-03-01T03:22:47;9.55;;;5.93;;
62419;SDS011;48460;51.616;5.426;2023-03-01T03:25:14;10.35;;;5.80;;
62419;SDS011;48460;51.616;5.426;2023-03-01T03:27:41;9.32;;;5.57;;
62419;SDS011;48460;51.616;5.426;2023-03-01T03:30:09;12.63;;;6.05;;
62419;SDS011;48460;51.616;5.426;2023-03-01T03:32:41;11.23;;;5.93;;
62419;SDS011;48460;51.616;5.426;2023-03-01T03:35:16;8.68;;;5.20;;
62419;SDS011;48460;51.616;5.426;2023-03-01T03:37:41;8.95;;;5.78;;
62419;SDS011;48460;51.616;5.426;2023-03-01T03:40:25;10.30;;;6.35;;
62419;SDS011;48460;51.616;5.426;2023-03-01T03:42:51;14.15;;;6.25;;
62419;SDS011;48460;51.616;5.426;2023-03-01T03:45:19;10.52;;;6.05;;
62419;SDS011;48460;51.616;5.426;2023-03-01T03:47:45;11.13;;;6.30;;
62419;SDS011;48460;51.616;5.426;2023-03-01T03:50:11;14.20;;;6.13;;
62419;SDS011;48460;51.616;5.426;2023-03-01T03:52:41;10.45;;;5.80;;
62419;SDS011;48460;51.616;5.426;2023-03-01T03:55:08;10.82;;;5.72;;
62419;SDS011;48460;51.616;5.426;2023-03-01T03:57:37;11.40;;;6.32;;
62419;SDS011;48460;51.616;5.426;2023-03-01T04:00:07;10.00;;;6.00;;
62419;SDS011;48460;51.616;5.426;2023-03-01T04:02:43;10.90;;;5.68;;
62419;SDS011;48460;51.616;5.426;2023-03-01T04:05:11;12.15;;;6.20;;
62419;SDS011;48460;51.616;5.426;2023-03-01T04:07:38;9.88;;;6.00;;
62419;SDS011;48460;51.616;5.426;2023-03-01T04:10:05;11.23;;;6.10;;
62419;SDS011;48460;51.616;5.426;2023-03-01T04:12:33;10.50;;;6.35;;
62419;SDS011;48460;51.616;5.426;2023-03-01T04:15:04;11.57;;;6.20;;
62419;SDS011;48460;51.616;5.426;2023-03-01T04:17:38;8.98;;;5.63;;
62419;SDS011;48460;51.616;5.426;2023-03-01T04:20:08;11.13;;;5.75;;
62419;SDS011;48460;51.616;5.426;2023-03-01T04:22:38;12.23;;;6.28;;
62419;SDS011;48460;51.616;5.426;2023-03-01T04:25:08;11.40;;;6.47;;
62419;SDS011;48460;51.616;5.426;2023-03-01T04:27:34;9.60;;;6.10;;
62419;SDS011;48460;51.616;5.426;2023-03-01T04:30:03;10.60;;;6.35;;
62419;SDS011;48460;51.616;5.426;2023-03-01T04:32:29;12.18;;;6.35;;
62419;SDS011;48460;51.616;5.426;2023-03-01T04:34:59;10.38;;;6.43;;
62419;SDS011;48460;51.616;5.426;2023-03-01T04:37:26;12.13;;;6.25;;
62419;SDS011;48460;51.616;5.426;2023-03-01T04:39:55;9.40;;;5.78;;
62419;SDS011;48460;51.616;5.426;2023-03-01T04:42:24;12.90;;;6.22;;
62419;SDS011;48460;51.616;5.426;2023-03-01T04:44:52;10.65;;;6.35;;
62419;SDS011;48460;51.616;5.426;2023-03-01T04:47:25;10.63;;;6.15;;
62419;SDS011;48460;51.616;5.426;2023-03-01T04:49:51;12.07;;;6.15;;
62419;SDS011;48460;51.616;5.426;2023-03-01T04:52:21;10.60;;;6.28;;
62419;SDS011;48460;51.616;5.426;2023-03-01T04:54:57;15.02;;;6.68;;
62419;SDS011;48460;51.616;5.426;2023-03-01T04:57:23;14.02;;;6.55;;
62419;SDS011;48460;51.616;5.426;2023-03-01T04:59:51;12.27;;;6.38;;
62419;SDS011;48460;51.616;5.426;2023-03-01T05:02:16;10.77;;;6.30;;
62419;SDS011;48460;51.616;5.426;2023-03-01T05:04:42;11.88;;;6.13;;
62419;SDS011;48460;51.616;5.426;2023-03-01T05:07:12;13.32;;;6.18;;
62419;SDS011;48460;51.616;5.426;2023-03-01T05:09:42;11.07;;;6.50;;
62419;SDS011;48460;51.616;5.426;2023-03-01T05:12:08;12.18;;;6.30;;
62419;SDS011;48460;51.616;5.426;2023-03-01T05:14:34;10.90;;;6.40;;
62419;SDS011;48460;51.616;5.426;2023-03-01T05:17:03;12.10;;;6.50;;
62419;SDS011;48460;51.616;5.426;2023-03-01T05:19:31;13.73;;;6.75;;
62419;SDS011;48460;51.616;5.426;2023-03-01T05:21:57;12.50;;;6.20;;
62419;SDS011;48460;51.616;5.426;2023-03-01T05:24:26;11.48;;;6.55;;
62419;SDS011;48460;51.616;5.426;2023-03-01T05:27:20;12.65;;;6.47;;
62419;SDS011;48460;51.616;5.426;2023-03-01T05:29:50;12.77;;;6.43;;
62419;SDS011;48460;51.616;5.426;2023-03-01T05:32:15;11.18;;;6.07;;
62419;SDS011;48460;51.616;5.426;2023-03-01T05:34:41;11.80;;;6.43;;
62419;SDS011;48460;51.616;5.426;2023-03-01T05:37:07;12.10;;;6.93;;
62419;SDS011;48460;51.616;5.426;2023-03-01T05:39:33;12.15;;;7.35;;
62419;SDS011;48460;51.616;5.426;2023-03-01T05:42:00;12.30;;;7.32;;
62419;SDS011;48460;51.616;5.426;2023-03-01T05:44:26;12.90;;;7.22;;
62419;SDS011;48460;51.616;5.426;2023-03-01T05:46:55;15.57;;;7.95;;
62419;SDS011;48460;51.616;5.426;2023-03-01T05:49:23;12.63;;;7.05;;
62419;SDS011;48460;51.616;5.426;2023-03-01T05:51:50;13.32;;;6.55;;
62419;SDS011;48460;51.616;5.426;2023-03-01T05:54:20;14.40;;;7.57;;
62419;SDS011;48460;51.616;5.426;2023-03-01T05:56:51;12.23;;;7.03;;
62419;SDS011;48460;51.616;5.426;2023-03-01T05:59:17;12.57;;;7.28;;
62419;SDS011;48460;51.616;5.426;2023-03-01T06:01:43;15.93;;;6.97;;
62419;SDS011;48460;51.616;5.426;2023-03-01T06:04:08;12.10;;;7.10;;
62419;SDS011;48460;51.616;5.426;2023-03-01T06:06:37;12.15;;;6.95;;
62419;SDS011;48460;51.616;5.426;2023-03-01T06:09:05;12.02;;;7.25;;
62419;SDS011;48460;51.616;5.426;2023-03-01T06:11:41;13.68;;;7.00;;
62419;SDS011;48460;51.616;5.426;2023-03-01T06:14:07;12.48;;;6.68;;
62419;SDS011;48460;51.616;5.426;2023-03-01T06:16:41;18.75;;;7.00;;
62419;SDS011;48460;51.616;5.426;2023-03-01T06:19:06;13.18;;;6.85;;
62419;SDS011;48460;51.616;5.426;2023-03-01T06:21:36;13.65;;;6.30;;
62419;SDS011;48460;51.616;5.426;2023-03-01T06:24:05;10.40;;;5.70;;
62419;SDS011;48460;51.616;5.426;2023-03-01T06:26:32;12.35;;;6.07;;
62419;SDS011;48460;51.616;5.426;2023-03-01T06:29:07;10.48;;;6.53;;
62419;SDS011;48460;51.616;5.426;2023-03-01T06:31:33;10.30;;;6.28;;
62419;SDS011;48460;51.616;5.426;2023-03-01T06:34:02;10.95;;;6.18;;
62419;SDS011;48460;51.616;5.426;2023-03-01T06:36:40;12.35;;;6.65;;
62419;SDS011;48460;51.616;5.426;2023-03-01T06:39:14;10.25;;;6.28;;
62419;SDS011;48460;51.616;5.426;2023-03-01T06:41:42;15.18;;;6.93;;
62419;SDS011;48460;51.616;5.426;2023-03-01T06:44:11;12.18;;;6.80;;
62419;SDS011;48460;51.616;5.426;2023-03-01T06:46:41;12.95;;;6.10;;
62419;SDS011;48460;51.616;5.426;2023-03-01T06:49:08;11.13;;;6.57;;
62419;SDS011;48460;51.616;5.426;2023-03-01T06:51:35;10.13;;;5.97;;
62419;SDS011;48460;51.616;5.426;2023-03-01T06:54:02;10.00;;;5.78;;
62419;SDS011;48460;51.616;5.426;2023-03-01T06:56:28;10.90;;;6.80;;
62419;SDS011;48460;51.616;5.426;2023-03-01T06:58:54;14.20;;;6.80;;
62419;SDS011;48460;51.616;5.426;2023-03-01T07:01:19;10.57;;;6.40;;
62419;SDS011;48460;51.616;5.426;2023-03-01T07:10:16;12.07;;;6.35;;
62419;SDS011;48460;51.616;5.426;2023-03-01T07:12:41;12.48;;;6.13;;
62419;SDS011;48460;51.616;5.426;2023-03-01T07:15:08;14.77;;;6.72;;
62419;SDS011;48460;51.616;5.426;2023-03-01T07:17:37;13.43;;;7.00;;
62419;SDS011;48460;51.616;5.426;2023-03-01T07:20:06;12.85;;;7.15;;
62419;SDS011;48460;51.616;5.426;2023-03-01T07:22:31;12.80;;;7.25;;
62419;SDS011;48460;51.616;5.426;2023-03-01T07:25:03;13.32;;;7.20;;
62419;SDS011;48460;51.616;5.426;2023-03-01T07:27:31;12.23;;;6.43;;
62419;SDS011;48460;51.616;5.426;2023-03-01T07:29:59;10.60;;;6.35;;
62419;SDS011;48460;51.616;5.426;2023-03-01T07:46:15;11.23;;;6.65;;
62419;SDS011;48460;51.616;5.426;2023-03-01T07:48:40;12.45;;;6.80;;
62419;SDS011;48460;51.616;5.426;2023-03-01T07:51:06;18.73;;;7.15;;
62419;SDS011;48460;51.616;5.426;2023-03-01T07:53:32;13.48;;;6.72;;
62419;SDS011;48460;51.616;5.426;2023-03-01T07:56:03;15.40;;;7.70;;
62419;SDS011;48460;51.616;5.426;2023-03-01T07:58:31;13.00;;;6.73;;
62419;SDS011;48460;51.616;5.426;2023-03-01T08:01:00;12.88;;;7.43;;
62419;SDS011;48460;51.616;5.426;2023-03-01T08:03:33;11.40;;;6.40;;
62419;SDS011;48460;51.616;5.426;2023-03-01T08:06:00;16.52;;;6.82;;
62419;SDS011;48460;51.616;5.426;2023-03-01T08:08:26;12.43;;;7.13;;
62419;SDS011;48460;51.616;5.426;2023-03-01T08:10:52;12.65;;;6.50;;
62419;SDS011;48460;51.616;5.426;2023-03-01T08:13:17;10.30;;;6.03;;
62419;SDS011;48460;51.616;5.426;2023-03-01T08:15:47;15.75;;;7.10;;
62419;SDS011;48460;51.616;5.426;2023-03-01T08:18:14;19.42;;;8.05;;
62419;SDS011;48460;51.616;5.426;2023-03-01T08:20:47;13.18;;;7.38;;
62419;SDS011;48460;51.616;5.426;2023-03-01T08:23:13;14.18;;;7.40;;
62419;SDS011;48460;51.616;5.426;2023-03-01T08:25:38;15.27;;;7.80;;
62419;SDS011;48460;51.616;5.426;2023-03-01T08:28:04;15.10;;;6.72;;
62419;SDS011;48460;51.616;5.426;2023-03-01T08:30:41;12.85;;;7.20;;
62419;SDS011;48460;51.616;5.426;2023-03-01T08:33:09;18.25;;;7.32;;
62419;SDS011;48460;51.616;5.426;2023-03-01T08:35:36;15.20;;;7.10;;
62419;SDS011;48460;51.616;5.426;2023-03-01T08:38:02;13.73;;;6.70;;
62419;SDS011;48460;51.616;5.426;2023-03-01T08:40:27;15.93;;;7.57;;
62419;SDS011;48460;51.616;5.426;2023-03-01T08:42:53;12.60;;;6.70;;
62419;SDS011;48460;51.616;5.426;2023-03-01T08:45:18;13.18;;;7.38;;
62419;SDS011;48460;51.616;5.426;2023-03-01T08:47:44;15.63;;;7.43;;
62419;SDS011;48460;51.616;5.426;2023-03-01T08:50:12;12.85;;;6.72;;
62419;SDS011;48460;51.616;5.426;2023-03-01T08:52:40;13.45;;;6.63;;
62419;SDS011;48460;51.616;5.426;2023-03-01T08:55:08;12.35;;;7.00;;
62419;SDS011;48460;51.616;5.426;2023-03-01T08:57:48;10.05;;;6.43;;
62419;SDS011;48460;51.616;5.426;2023-03-01T09:00:15;11.57;;;6.70;;
62419;SDS011;48460;51.616;5.426;2023-03-01T09:02:43;14.05;;;6.90;;
62419;SDS011;48460;51.616;5.426;2023-03-01T09:05:12;11.57;;;6.82;;
62419;SDS011;48460;51.616;5.426;2023-03-01T09:07:37;14.30;;;6.10;;
62419;SDS011;48460;51.616;5.426;2023-03-01T09:10:03;9.45;;;6.47;;
62419;SDS011;48460;51.616;5.426;2023-03-01T09:12:31;13.65;;;6.57;;
62419;SDS011;48460;51.616;5.426;2023-03-01T09:14:58;11.90;;;6.78;;
62419;SDS011;48460;51.616;5.426;2023-03-01T09:17:23;14.15;;;6.70;;
62419;SDS011;48460;51.616;5.426;2023-03-01T09:19:51;12.35;;;5.65;;
62419;SDS011;48460;51.616;5.426;2023-03-01T09:22:17;10.77;;;6.25;;
62419;SDS011;48460;51.616;5.426;2023-03-01T09:24:42;10.82;;;6.40;;
62419;SDS011;48460;51.616;5.426;2023-03-01T09:27:13;13.02;;;6.72;;
62419;SDS011;48460;51.616;5.426;2023-03-01T09:29:47;17.15;;;6.65;;
62419;SDS011;48460;51.616;5.426;2023-03-01T09:32:15;9.82;;;6.10;;
62419;SDS011;48460;51.616;5.426;2023-03-01T09:34:40;11.13;;;6.40;;
62419;SDS011;48460;51.616;5.426;2023-03-01T09:37:24;10.85;;;6.05;;
62419;SDS011;48460;51.616;5.426;2023-03-01T09:39:50;10.45;;;5.85;;
62419;SDS011;48460;51.616;5.426;2023-03-01T09:42:16;11.50;;;6.18;;
62419;SDS011;48460;51.616;5.426;2023-03-01T09:50:06;10.98;;;5.78;;
62419;SDS011;48460;51.616;5.426;2023-03-01T09:52:43;10.82;;;6.13;;
62419;SDS011;48460;51.616;5.426;2023-03-01T09:55:11;10.60;;;6.03;;
62419;SDS011;48460;51.616;5.426;2023-03-01T10:00:51;9.70;;;5.22;;
62419;SDS011;48460;51.616;5.426;2023-03-01T10:03:22;11.77;;;5.82;;
62419;SDS011;48460;51.616;5.426;2023-03-01T10:06:11;12.70;;;6.20;;
62419;SDS011;48460;51.616;5.426;2023-03-01T10:08:55;10.77;;;6.50;;
62419;SDS011;48460;51.616;5.426;2023-03-01T10:11:27;12.45;;;6.15;;
62419;SDS011;48460;51.616;5.426;2023-03-01T10:17:04;9.77;;;5.22;;
62419;SDS011;48460;51.616;5.426;2023-03-01T10:19:41;9.27;;;5.15;;
62419;SDS011;48460;51.616;5.426;2023-03-01T10:32:42;9.43;;;5.60;;
62419;SDS011;48460;51.616;5.426;2023-03-01T10:35:29;8.95;;;5.32;;
62419;SDS011;48460;51.616;5.426;2023-03-01T10:38:15;10.60;;;5.75;;
62419;SDS011;48460;51.616;5.426;2023-03-01T10:43:54;9.98;;;5.97;;
62419;SDS011;48460;51.616;5.426;2023-03-01T10:46:33;9.07;;;5.22;;
62419;SDS011;48460;51.616;5.426;2023-03-01T10:49:17;8.68;;;5.50;;
62419;SDS011;48460;51.616;5.426;2023-03-01T10:51:44;10.63;;;5.97;;
62419;SDS011;48460;51.616;5.426;2023-03-01T10:56:52;9.77;;;6.05;;
62419;SDS011;48460;51.616;5.426;2023-03-01T10:59:28;11.55;;;6.00;;
62419;SDS011;48460;51.616;5.426;2023-03-01T11:02:02;9.00;;;5.38;;
62419;SDS011;48460;51.616;5.426;2023-03-01T11:04:34;11.50;;;6.00;;
62419;SDS011;48460;51.616;5.426;2023-03-01T11:07:02;10.63;;;6.13;;
62419;SDS011;48460;51.616;5.426;2023-03-01T11:09:33;10.13;;;5.60;;
62419;SDS011;48460;51.616;5.426;2023-03-01T11:12:05;11.23;;;6.10;;
62419;SDS011;48460;51.616;5.426;2023-03-01T11:14:46;9.65;;;6.07;;
62419;SDS011;48460;51.616;5.426;2023-03-01T11:20:18;10.88;;;6.55;;
62419;SDS011;48460;51.616;5.426;2023-03-01T11:22:51;13.93;;;6.70;;
62419;SDS011;48460;51.616;5.426;2023-03-01T11:25:29;9.35;;;5.93;;
62419;SDS011;48460;51.616;5.426;2023-03-01T11:28:01;14.75;;;6.22;;
62419;SDS011;48460;51.616;5.426;2023-03-01T11:33:05;10.40;;;6.07;;
62419;SDS011;48460;51.616;5.426;2023-03-01T11:38:27;10.75;;;6.20;;
62419;SDS011;48460;51.616;5.426;2023-03-01T11:41:00;10.90;;;6.47;;
62419;SDS011;48460;51.616;5.426;2023-03-01T11:46:02;9.10;;;5.80;;
62419;SDS011;48460;51.616;5.426;2023-03-01T11:51:17;7.80;;;5.25;;
62419;SDS011;48460;51.616;5.426;2023-03-01T12:40:29;10.55;;;5.22;;
62419;SDS011;48460;51.616;5.426;2023-03-01T12:51:37;9.32;;;5.80;;
62419;SDS011;48460;51.616;5.426;2023-03-01T12:54:11;9.77;;;6.18;;
62419;SDS011;48460;51.616;5.426;2023-03-01T12:56:46;10.00;;;6.45;;
62419;SDS011;48460;51.616;5.426;2023-03-01T13:05:00;8.93;;;5.95;;
62419;SDS011;48460;51.616;5.426;2023-03-01T13:07:44;11.32;;;6.45;;
62419;SDS011;48460;51.616;5.426;2023-03-01T13:13:40;10.63;;;6.00;;
62419;SDS011;48460;51.616;5.426;2023-03-01T13:22:01;9.07;;;5.38;;
62419;SDS011;48460;51.616;5.426;2023-03-01T13:25:00;9.10;;;5.95;;
62419;SDS011;48460;51.616;5.426;2023-03-01T13:27:30;10.02;;;5.90;;
62419;SDS011;48460;51.616;5.426;2023-03-01T13:29:59;6.63;;;4.38;;
62419;SDS011;48460;51.616;5.426;2023-03-01T13:32:32;13.95;;;5.95;;
62419;SDS011;48460;51.616;5.426;2023-03-01T13:41:04;10.73;;;5.85;;
62419;SDS011;48460;51.616;5.426;2023-03-01T13:43:37;10.88;;;6.38;;
62419;SDS011;48460;51.616;5.426;2023-03-01T13:46:16;10.68;;;6.55;;
62419;SDS011;48460;51.616;5.426;2023-03-01T13:49:03;10.45;;;6.10;;
62419;SDS011;48460;51.616;5.426;2023-03-01T13:51:42;8.98;;;6.10;;
62419;SDS011;48460;51.616;5.426;2023-03-01T13:54:12;10.95;;;6.40;;
62419;SDS011;48460;51.616;5.426;2023-03-01T13:56:43;10.32;;;6.38;;
62419;SDS011;48460;51.616;5.426;2023-03-01T14:02:32;9.75;;;6.35;;
62419;SDS011;48460;51.616;5.426;2023-03-01T14:04:40;9.50;;;6.50;;
62419;SDS011;48460;51.616;5.426;2023-03-01T14:07:26;11.93;;;6.78;;
62419;SDS011;48460;51.616;5.426;2023-03-01T14:10:00;9.93;;;6.60;;
62419;SDS011;48460;51.616;5.426;2023-03-01T14:12:43;12.43;;;6.90;;
62419;SDS011;48460;51.616;5.426;2023-03-01T14:15:41;11.05;;;6.47;;
62419;SDS011;48460;51.616;5.426;2023-03-01T14:21:44;8.85;;;5.88;;
62419;SDS011;48460;51.616;5.426;2023-03-01T14:24:17;10.40;;;6.25;;
62419;SDS011;48460;51.616;5.426;2023-03-01T14:26:45;11.32;;;6.57;;
62419;SDS011;48460;51.616;5.426;2023-03-01T14:29:25;9.48;;;6.28;;
62419;SDS011;48460;51.616;5.426;2023-03-01T14:31:54;10.10;;;6.53;;
62419;SDS011;48460;51.616;5.426;2023-03-01T14:34:24;10.75;;;6.70;;
62419;SDS011;48460;51.616;5.426;2023-03-01T14:36:52;10.32;;;6.88;;
62419;SDS011;48460;51.616;5.426;2023-03-01T14:39:31;11.88;;;6.25;;
62419;SDS011;48460;51.616;5.426;2023-03-01T14:41:59;9.77;;;6.75;;
62419;SDS011;48460;51.616;5.426;2023-03-01T14:44:26;10.43;;;6.25;;
62419;SDS011;48460;51.616;5.426;2023-03-01T14:47:03;13.23;;;6.90;;
62419;SDS011;48460;51.616;5.426;2023-03-01T14:49:37;9.98;;;6.60;;
62419;SDS011;48460;51.616;5.426;2023-03-01T14:52:04;10.68;;;6.07;;
62419;SDS011;48460;51.616;5.426;2023-03-01T14:54:45;10.88;;;6.57;;
62419;SDS011;48460;51.616;5.426;2023-03-01T14:57:20;9.40;;;6.40;;
62419;SDS011;48460;51.616;5.426;2023-03-01T14:59:59;11.10;;;6.75;;
62419;SDS011;48460;51.616;5.426;2023-03-01T15:03:06;10.77;;;6.85;;
62419;SDS011;48460;51.616;5.426;2023-03-01T15:05:34;10.20;;;6.75;;
62419;SDS011;48460;51.616;5.426;2023-03-01T15:08:24;10.07;;;6.43;;
62419;SDS011;48460;51.616;5.426;2023-03-01T15:11:05;10.60;;;6.70;;
62419;SDS011;48460;51.616;5.426;2023-03-01T15:13:52;11.73;;;6.15;;
62419;SDS011;48460;51.616;5.426;2023-03-01T15:21:27;9.07;;;5.82;;
62419;SDS011;48460;51.616;5.426;2023-03-01T15:27:01;11.88;;;6.22;;
62419;SDS011;48460;51.616;5.426;2023-03-01T15:29:31;8.90;;;6.23;;
62419;SDS011;48460;51.616;5.426;2023-03-01T15:32:21;11.68;;;6.80;;
62419;SDS011;48460;51.616;5.426;2023-03-01T15:34:51;11.98;;;6.82;;
62419;SDS011;48460;51.616;5.426;2023-03-01T15:40:19;10.27;;;6.47;;
62419;SDS011;48460;51.616;5.426;2023-03-01T15:47:50;11.48;;;7.20;;
62419;SDS011;48460;51.616;5.426;2023-03-01T15:50:38;11.30;;;7.00;;
62419;SDS011;48460;51.616;5.426;2023-03-01T15:53:10;14.32;;;7.13;;
62419;SDS011;48460;51.616;5.426;2023-03-01T15:55:40;14.68;;;7.03;;
62419;SDS011;48460;51.616;5.426;2023-03-01T15:58:17;11.57;;;7.35;;
62419;SDS011;48460;51.616;5.426;2023-03-01T16:00:48;9.75;;;6.60;;
62419;SDS011;48460;51.616;5.426;2023-03-01T16:03:24;10.93;;;7.15;;
62419;SDS011;48460;51.616;5.426;2023-03-01T16:06:00;10.13;;;6.40;;
62419;SDS011;48460;51.616;5.426;2023-03-01T16:08:45;11.00;;;7.00;;
62419;SDS011;48460;51.616;5.426;2023-03-01T16:11:19;10.93;;;6.80;;
62419;SDS011;48460;51.616;5.426;2023-03-01T16:14:07;10.45;;;7.05;;
62419;SDS011;48460;51.616;5.426;2023-03-01T16:16:57;10.90;;;6.43;;
62419;SDS011;48460;51.616;5.426;2023-03-01T16:19:35;11.43;;;6.97;;
62419;SDS011;48460;51.616;5.426;2023-03-01T16:22:06;14.35;;;6.82;;
62419;SDS011;48460;51.616;5.426;2023-03-01T16:24:40;12.98;;;6.00;;
62419;SDS011;48460;51.616;5.426;2023-03-01T16:29:41;12.45;;;5.80;;
62419;SDS011;48460;51.616;5.426;2023-03-01T16:32:11;11.00;;;6.18;;
62419;SDS011;48460;51.616;5.426;2023-03-01T16:34:39;11.75;;;6.50;;
62419;SDS011;48460;51.616;5.426;2023-03-01T16:37:06;12.00;;;6.35;;
62419;SDS011;48460;51.616;5.426;2023-03-01T16:39:34;12.10;;;6.65;;
62419;SDS011;48460;51.616;5.426;2023-03-01T16:42:03;12.18;;;7.07;;
62419;SDS011;48460;51.616;5.426;2023-03-01T16:44:39;11.25;;;6.50;;
62419;SDS011;48460;51.616;5.426;2023-03-01T16:47:17;12.60;;;5.95;;
62419;SDS011;48460;51.616;5.426;2023-03-01T16:49:43;9.32;;;6.10;;
62419;SDS011;48460;51.616;5.426;2023-03-01T16:52:11;10.80;;;6.18;;
62419;SDS011;48460;51.616;5.426;2023-03-01T16:54:41;11.67;;;6.30;;
62419;SDS011;48460;51.616;5.426;2023-03-01T16:57:13;13.52;;;6.47;;
62419;SDS011;48460;51.616;5.426;2023-03-01T16:59:39;10.70;;;6.10;;
62419;SDS011;48460;51.616;5.426;2023-03-01T17:02:05;12.10;;;6.07;;
62419;SDS011;48460;51.616;5.426;2023-03-01T17:04:37;12.95;;;5.93;;
62419;SDS011;48460;51.616;5.426;2023-03-01T17:07:07;11.13;;;6.18;;
62419;SDS011;48460;51.616;5.426;2023-03-01T17:09:39;11.63;;;6.35;;
62419;SDS011;48460;51.616;5.426;2023-03-01T17:12:14;14.30;;;6.47;;
62419;SDS011;48460;51.616;5.426;2023-03-01T17:14:51;11.20;;;6.35;;
62419;SDS011;48460;51.616;5.426;2023-03-01T17:17:19;13.02;;;7.20;;
62419;SDS011;48460;51.616;5.426;2023-03-01T17:19:52;10.68;;;6.20;;
62419;SDS011;48460;51.616;5.426;2023-03-01T17:22:26;11.48;;;6.22;;
62419;SDS011;48460;51.616;5.426;2023-03-01T17:24:54;11.00;;;6.35;;
62419;SDS011;48460;51.616;5.426;2023-03-01T17:27:22;9.75;;;6.35;;
62419;SDS011;48460;51.616;5.426;2023-03-01T17:29:48;13.25;;;6.50;;
62419;SDS011;48460;51.616;5.426;2023-03-01T17:32:15;12.98;;;6.53;;
62419;SDS011;48460;51.616;5.426;2023-03-01T17:34:43;15.65;;;7.15;;
62419;SDS011;48460;51.616;5.426;2023-03-01T17:37:13;13.65;;;7.35;;
62419;SDS011;48460;51.616;5.426;2023-03-01T17:39:58;16.65;;;7.30;;
62419;SDS011;48460;51.616;5.426;2023-03-01T17:42:27;12.57;;;7.38;;
62419;SDS011;48460;51.616;5.426;2023-03-01T17:44:55;13.70;;;6.93;;
62419;SDS011;48460;51.616;5.426;2023-03-01T17:47:32;12.25;;;6.55;;
62419;SDS011;48460;51.616;5.426;2023-03-01T17:50:00;11.27;;;6.43;;
62419;SDS011;48460;51.616;5.426;2023-03-01T17:52:27;13.48;;;6.93;;